createdAt,value
2018-11-14T00:00:23.811Z,31.85
2018-11-14T00:00:56.535Z,25.57
2018-11-14T00:01:29.239Z,31.60
2018-11-14T00:02:01.944Z,34.95
2018-11-14T00:02:34.611Z,28.83
2018-11-14T00:03:07.307Z,28.23
2018-11-14T00:03:39.971Z,30.05
2018-11-14T00:04:12.643Z,31.53
2018-11-14T00:04:45.327Z,27.48
2018-11-14T00:05:18.015Z,31.17
2018-11-14T00:05:50.707Z,37.38
2018-11-14T00:06:23.358Z,34.38
2018-11-14T00:06:56.049Z,34.05
2018-11-14T00:08:33.573Z,35.38
2018-11-14T00:09:08.024Z,28.85
2018-11-14T00:09:40.791Z,33.83
2018-11-14T00:10:13.515Z,32.23
2018-11-14T00:10:46.099Z,35.03
2018-11-14T00:11:18.743Z,26.55
2018-11-14T00:11:51.432Z,42.27
2018-11-14T00:12:24.153Z,28.52
2018-11-14T00:12:56.819Z,34.85
2018-11-14T00:13:29.466Z,33.02
2018-11-14T00:14:02.139Z,35.00
2018-11-14T00:14:34.799Z,27.90
2018-11-14T00:15:11.982Z,25.85
2018-11-14T00:15:44.611Z,33.18
2018-11-14T00:16:17.293Z,28.95
2018-11-14T00:16:49.940Z,31.15
2018-11-14T00:17:22.604Z,23.95
2018-11-14T00:17:55.255Z,27.65
2018-11-14T00:18:27.935Z,24.80
2018-11-14T00:19:00.588Z,28.33
2018-11-14T00:19:33.449Z,30.88
2018-11-14T00:20:07.063Z,27.87
2018-11-14T00:20:39.749Z,33.80
2018-11-14T00:21:12.399Z,28.80
2018-11-14T00:21:45.456Z,32.48
2018-11-14T00:22:17.711Z,21.33
2018-11-14T00:22:50.907Z,29.45
2018-11-14T00:23:23.557Z,32.15
2018-11-14T00:23:56.250Z,26.70
2018-11-14T00:24:28.944Z,29.60
2018-11-14T00:25:01.560Z,29.90
2018-11-14T00:25:34.223Z,32.88
2018-11-14T00:26:06.918Z,31.27
2018-11-14T00:26:39.618Z,30.45
2018-11-14T00:27:12.231Z,34.20
2018-11-14T00:27:44.960Z,27.62
2018-11-14T00:28:17.671Z,33.33
2018-11-14T00:28:50.327Z,33.98
2018-11-14T00:29:23.054Z,35.80
2018-11-14T00:29:55.688Z,35.25
2018-11-14T00:30:28.356Z,30.88
2018-11-14T00:31:00.993Z,26.87
2018-11-14T00:31:33.694Z,33.05
2018-11-14T00:32:06.366Z,30.43
2018-11-14T00:32:39.107Z,25.55
2018-11-14T00:33:11.839Z,28.65
2018-11-14T00:33:44.422Z,30.90
2018-11-14T00:34:17.116Z,31.02
2018-11-14T00:34:49.815Z,33.98
2018-11-14T00:35:22.448Z,29.92
2018-11-14T00:35:55.122Z,36.90
2018-11-14T00:36:27.792Z,33.30
2018-11-14T00:37:00.446Z,29.72
2018-11-14T00:37:33.090Z,38.33
2018-11-14T00:38:05.753Z,32.65
2018-11-14T00:38:38.409Z,31.27
2018-11-14T00:39:11.794Z,31.10
2018-11-14T00:39:44.466Z,36.73
2018-11-14T00:40:17.842Z,31.60
2018-11-14T00:40:50.502Z,35.70
2018-11-14T00:41:23.154Z,28.40
2018-11-14T00:41:55.823Z,30.75
2018-11-14T00:42:28.502Z,31.30
2018-11-14T00:43:01.195Z,30.60
2018-11-14T00:43:33.828Z,31.68
2018-11-14T00:44:06.522Z,30.90
2018-11-14T00:44:39.181Z,37.88
2018-11-14T00:45:13.597Z,27.65
2018-11-14T00:45:46.269Z,35.83
2018-11-14T00:46:18.954Z,32.88
2018-11-14T00:46:51.615Z,37.85
2018-11-14T00:47:24.275Z,30.70
2018-11-14T00:47:56.940Z,36.20
2018-11-14T00:48:29.611Z,33.83
2018-11-14T00:49:02.255Z,30.50
2018-11-14T00:49:34.894Z,33.60
2018-11-14T00:50:08.411Z,31.97
2018-11-14T00:50:41.088Z,29.77
2018-11-14T00:51:13.742Z,32.20
2018-11-14T00:51:46.390Z,28.83
2018-11-14T00:52:19.033Z,32.73
2018-11-14T00:52:51.710Z,34.50
2018-11-14T00:53:24.418Z,32.55
2018-11-14T00:53:57.277Z,33.58
2018-11-14T00:54:29.921Z,35.95
2018-11-14T00:55:02.559Z,37.73
2018-11-14T00:55:35.204Z,38.17
2018-11-14T00:56:07.864Z,30.02
2018-11-14T00:56:40.506Z,27.90
2018-11-14T00:57:13.172Z,36.33
2018-11-14T00:57:46.848Z,35.68
2018-11-14T00:58:19.540Z,29.65
2018-11-14T00:58:52.203Z,31.70
2018-11-14T00:59:24.864Z,32.60
2018-11-14T00:59:57.504Z,39.20
2018-11-14T01:00:30.164Z,37.15
2018-11-14T01:01:02.858Z,32.75
2018-11-14T01:01:35.623Z,34.13
2018-11-14T01:02:08.200Z,35.45
2018-11-14T01:02:41.156Z,38.08
2018-11-14T01:03:13.806Z,34.43
2018-11-14T01:03:46.448Z,33.30
2018-11-14T01:04:19.172Z,30.35
2018-11-14T01:04:51.820Z,37.58
2018-11-14T01:05:24.485Z,41.23
2018-11-14T01:05:57.150Z,34.15
2018-11-14T01:06:29.794Z,36.28
2018-11-14T01:07:02.432Z,32.78
2018-11-14T01:07:35.149Z,32.23
2018-11-14T01:08:07.914Z,31.45
2018-11-14T01:08:40.596Z,35.10
2018-11-14T01:09:13.282Z,35.70
2018-11-14T01:09:45.895Z,37.45
2018-11-14T01:10:19.813Z,33.40
2018-11-14T01:10:52.435Z,27.80
2018-11-14T01:11:25.122Z,29.92
2018-11-14T01:11:57.790Z,30.35
2018-11-14T01:12:30.525Z,37.17
2018-11-14T01:13:03.223Z,35.13
2018-11-14T01:13:35.891Z,30.88
2018-11-14T01:14:09.386Z,24.20
2018-11-14T01:14:42.050Z,25.72
2018-11-14T01:15:16.358Z,32.33
2018-11-14T01:15:49.009Z,30.77
2018-11-14T01:16:21.693Z,26.95
2018-11-14T01:16:54.333Z,29.65
2018-11-14T01:17:27.224Z,28.07
2018-11-14T01:17:59.721Z,35.55
2018-11-14T01:18:32.358Z,26.50
2018-11-14T01:19:05.675Z,33.33
2018-11-14T01:19:38.325Z,30.02
2018-11-14T01:20:13.014Z,28.47
2018-11-14T01:20:45.679Z,37.48
2018-11-14T01:21:18.325Z,29.87
2018-11-14T01:21:50.958Z,30.43
2018-11-14T01:22:23.632Z,24.95
2018-11-14T01:22:56.282Z,31.55
2018-11-14T01:23:28.964Z,26.93
2018-11-14T01:24:01.639Z,33.70
2018-11-14T01:24:34.292Z,28.60
2018-11-14T01:25:08.032Z,32.50
2018-11-14T01:25:40.691Z,33.70
2018-11-14T01:26:13.354Z,26.77
2018-11-14T01:26:46.028Z,28.77
2018-11-14T01:27:18.683Z,28.38
2018-11-14T01:27:51.350Z,24.95
2018-11-14T01:28:24.049Z,27.70
2018-11-14T01:28:56.723Z,29.75
2018-11-14T01:29:29.387Z,28.47
2018-11-14T01:30:02.113Z,31.77
2018-11-14T01:30:34.775Z,26.35
2018-11-14T01:31:07.444Z,31.02
2018-11-14T01:31:40.106Z,26.20
2018-11-14T01:32:12.786Z,27.62
2018-11-14T01:32:46.182Z,30.45
2018-11-14T01:33:18.839Z,29.30
2018-11-14T01:33:51.536Z,26.10
2018-11-14T01:34:24.419Z,30.50
2018-11-14T01:34:57.094Z,28.40
2018-11-14T01:35:29.733Z,27.50
2018-11-14T01:36:02.410Z,25.32
2018-11-14T01:36:35.098Z,33.73
2018-11-14T01:37:07.766Z,32.48
2018-11-14T01:37:40.425Z,30.80
2018-11-14T01:38:13.106Z,28.50
2018-11-14T01:38:45.756Z,34.08
2018-11-14T01:39:18.454Z,28.30
2018-11-14T01:39:51.130Z,29.80
2018-11-14T01:40:24.780Z,31.15
2018-11-14T01:40:57.468Z,30.50
2018-11-14T01:41:30.160Z,26.97
2018-11-14T01:42:02.931Z,35.92
2018-11-14T01:42:35.586Z,28.02
2018-11-14T01:43:08.274Z,30.72
2018-11-14T01:43:40.921Z,30.43
2018-11-14T01:44:13.597Z,31.02
2018-11-14T01:44:46.242Z,32.42
2018-11-14T01:45:19.060Z,34.92
2018-11-14T01:45:51.712Z,33.95
2018-11-14T01:46:24.363Z,38.33
2018-11-14T01:46:57.037Z,38.35
2018-11-14T01:47:29.786Z,35.85
2018-11-14T01:48:02.434Z,33.90
2018-11-14T01:48:35.095Z,30.25
2018-11-14T01:49:08.598Z,31.77
2018-11-14T01:49:41.269Z,29.05
2018-11-14T01:50:13.933Z,36.13
2018-11-14T01:50:46.605Z,34.38
2018-11-14T01:51:19.272Z,30.48
2018-11-14T01:51:51.929Z,30.30
2018-11-14T01:52:24.574Z,33.28
2018-11-14T01:52:57.241Z,34.00
2018-11-14T01:53:29.875Z,31.40
2018-11-14T01:54:02.536Z,35.65
2018-11-14T01:54:35.208Z,37.30
2018-11-14T01:55:09.683Z,28.52
2018-11-14T01:55:42.375Z,31.48
2018-11-14T01:56:15.046Z,31.57
2018-11-14T01:56:47.701Z,30.37
2018-11-14T01:57:20.342Z,33.48
2018-11-14T01:57:52.989Z,33.60
2018-11-14T01:58:25.685Z,32.15
2018-11-14T01:58:58.358Z,32.30
2018-11-14T01:59:31.000Z,30.85
2018-11-14T02:00:05.097Z,31.57
2018-11-14T02:00:37.779Z,30.40
2018-11-14T02:01:10.444Z,32.00
2018-11-14T02:01:43.086Z,35.30
2018-11-14T02:02:15.749Z,31.90
2018-11-14T02:02:48.403Z,35.10
2018-11-14T02:03:21.074Z,32.53
2018-11-14T02:03:53.696Z,38.10
2018-11-14T02:04:26.358Z,29.50
2018-11-14T02:04:59.024Z,32.38
2018-11-14T02:05:31.684Z,33.98
2018-11-14T02:06:04.846Z,33.20
2018-11-14T02:06:37.518Z,35.92
2018-11-14T02:07:10.193Z,31.37
2018-11-14T02:07:42.896Z,33.48
2018-11-14T02:08:15.589Z,41.13
2018-11-14T02:08:48.259Z,32.80
2018-11-14T02:09:20.929Z,31.70
2018-11-14T02:09:53.574Z,33.55
2018-11-14T02:10:26.221Z,42.33
2018-11-14T02:10:58.879Z,34.05
2018-11-14T02:11:31.534Z,35.15
2018-11-14T02:12:04.683Z,34.18
2018-11-14T02:12:38.174Z,36.68
2018-11-14T02:13:11.145Z,30.48
2018-11-14T02:13:43.805Z,31.60
2018-11-14T02:14:16.476Z,32.15
2018-11-14T02:14:49.119Z,29.65
2018-11-14T02:15:22.838Z,31.10
2018-11-14T02:15:55.499Z,33.15
2018-11-14T02:16:28.166Z,30.45
2018-11-14T02:17:00.855Z,32.75
2018-11-14T02:17:33.509Z,28.38
2018-11-14T02:18:06.162Z,30.32
2018-11-14T02:18:38.818Z,31.55
2018-11-14T02:19:11.530Z,32.38
2018-11-14T02:19:44.199Z,31.07
2018-11-14T02:20:16.914Z,29.77
2018-11-14T02:20:49.600Z,36.23
2018-11-14T02:21:22.268Z,31.55
2018-11-14T02:21:54.950Z,31.20
2018-11-14T02:22:27.615Z,29.48
2018-11-14T02:23:00.271Z,36.30
2018-11-14T02:23:32.920Z,25.97
2018-11-14T02:24:05.607Z,33.58
2018-11-14T02:24:38.268Z,30.48
2018-11-14T02:25:11.519Z,27.00
2018-11-14T02:25:44.194Z,31.15
2018-11-14T02:26:16.852Z,29.42
2018-11-14T02:26:49.508Z,34.60
2018-11-14T02:27:22.215Z,34.88
2018-11-14T02:27:54.900Z,29.55
2018-11-14T02:28:27.595Z,31.87
2018-11-14T02:29:00.281Z,29.20
2018-11-14T02:29:32.964Z,27.42
2018-11-14T02:30:08.290Z,33.23
2018-11-14T02:30:40.947Z,33.83
2018-11-14T02:31:13.627Z,27.60
2018-11-14T02:31:46.314Z,30.77
2018-11-14T02:32:18.933Z,31.00
2018-11-14T02:32:51.727Z,39.30
2018-11-14T02:33:24.364Z,27.65
2018-11-14T02:33:57.030Z,31.40
2018-11-14T02:34:29.693Z,30.90
2018-11-14T02:35:02.383Z,29.15
2018-11-14T02:35:35.073Z,28.35
2018-11-14T02:36:07.722Z,28.27
2018-11-14T02:36:40.389Z,36.28
2018-11-14T02:37:13.075Z,32.05
2018-11-14T02:37:46.109Z,30.23
2018-11-14T02:38:18.744Z,30.05
2018-11-14T02:38:51.394Z,29.40
2018-11-14T02:39:24.114Z,33.35
2018-11-14T02:39:56.795Z,29.55
2018-11-14T02:40:29.439Z,27.40
2018-11-14T02:41:02.135Z,30.92
2018-11-14T02:41:35.407Z,27.55
2018-11-14T02:42:08.049Z,29.57
2018-11-14T02:42:40.775Z,30.88
2018-11-14T02:43:13.432Z,28.67
2018-11-14T02:43:46.122Z,30.05
2018-11-14T02:44:18.768Z,29.48
2018-11-14T02:44:51.463Z,29.77
2018-11-14T02:45:24.135Z,25.17
2018-11-14T02:45:56.795Z,21.97
2018-11-14T02:46:29.441Z,29.57
2018-11-14T02:47:02.117Z,29.32
2018-11-14T02:47:34.769Z,25.02
2018-11-14T02:48:07.441Z,28.62
2018-11-14T02:48:40.083Z,31.87
2018-11-14T02:49:12.756Z,33.70
2018-11-14T02:49:45.421Z,23.40
2018-11-14T02:50:18.474Z,26.93
2018-11-14T02:51:02.931Z,31.90
2018-11-14T02:51:35.607Z,30.27
2018-11-14T02:52:08.283Z,25.12
2018-11-14T02:52:40.965Z,27.00
2018-11-14T02:53:13.645Z,23.80
2018-11-14T02:53:46.285Z,28.15
2018-11-14T02:54:18.968Z,29.25
2018-11-14T02:54:51.611Z,26.17
2018-11-14T02:55:24.291Z,28.17
2018-11-14T02:56:05.687Z,26.23
2018-11-14T02:56:38.372Z,26.65
2018-11-14T02:57:11.039Z,23.40
2018-11-14T02:57:44.211Z,23.90
2018-11-14T02:58:16.878Z,29.23
2018-11-14T02:58:49.553Z,22.20
2018-11-14T02:59:22.227Z,23.98
2018-11-14T02:59:54.869Z,25.43
2018-11-14T03:00:27.567Z,24.60
2018-11-14T03:01:00.225Z,27.58
2018-11-14T03:01:32.876Z,24.85
2018-11-14T03:02:05.777Z,28.20
2018-11-14T03:02:38.421Z,26.33
2018-11-14T03:03:11.084Z,27.22
2018-11-14T03:03:43.987Z,27.07
2018-11-14T03:04:16.637Z,23.35
2018-11-14T03:04:49.291Z,25.68
2018-11-14T03:05:21.960Z,25.57
2018-11-14T03:05:54.607Z,24.87
2018-11-14T03:06:27.289Z,23.05
2018-11-14T03:06:59.919Z,28.90
2018-11-14T03:07:32.596Z,25.68
2018-11-14T03:08:05.279Z,29.77
2018-11-14T03:08:38.247Z,25.27
2018-11-14T03:09:10.895Z,27.55
2018-11-14T03:09:43.522Z,28.45
2018-11-14T03:10:18.393Z,24.27
2018-11-14T03:10:51.107Z,24.70
2018-11-14T03:11:23.746Z,25.45
2018-11-14T03:11:56.396Z,26.05
2018-11-14T03:12:29.095Z,28.02
2018-11-14T03:13:01.737Z,23.47
2018-11-14T03:13:34.383Z,21.37
2018-11-14T03:14:07.250Z,26.57
2018-11-14T03:14:39.924Z,30.95
2018-11-14T03:15:15.944Z,23.00
2018-11-14T03:15:48.577Z,30.25
2018-11-14T03:16:21.288Z,35.98
2018-11-14T03:16:53.977Z,29.80
2018-11-14T03:17:26.638Z,29.18
2018-11-14T03:17:59.276Z,25.45
2018-11-14T03:18:31.955Z,27.40
2018-11-14T03:19:04.768Z,22.50
2018-11-14T03:19:37.406Z,24.98
2018-11-14T03:20:12.529Z,22.02
2018-11-14T03:20:45.208Z,28.35
2018-11-14T03:21:17.894Z,23.05
2018-11-14T03:21:50.555Z,29.52
2018-11-14T03:22:23.205Z,27.45
2018-11-14T03:22:55.870Z,27.58
2018-11-14T03:23:28.619Z,32.10
2018-11-14T03:24:01.275Z,24.43
2018-11-14T03:24:33.935Z,27.77
2018-11-14T03:25:07.538Z,24.70
2018-11-14T03:25:40.207Z,26.73
2018-11-14T03:26:12.855Z,31.17
2018-11-14T03:26:45.519Z,24.98
2018-11-14T03:27:18.200Z,26.05
2018-11-14T03:27:50.849Z,23.25
2018-11-14T03:28:23.508Z,25.70
2018-11-14T03:28:56.267Z,30.50
2018-11-14T03:29:28.918Z,26.17
2018-11-14T03:30:01.610Z,24.72
2018-11-14T03:30:34.284Z,23.45
2018-11-14T03:31:07.122Z,22.13
2018-11-14T03:31:39.828Z,27.90
2018-11-14T03:32:12.498Z,24.25
2018-11-14T03:32:45.311Z,28.73
2018-11-14T03:33:17.954Z,22.48
2018-11-14T03:33:50.709Z,28.00
2018-11-14T03:34:23.368Z,25.60
2018-11-14T03:34:56.026Z,25.82
2018-11-14T03:35:34.508Z,23.47
2018-11-14T03:36:12.844Z,22.70
2018-11-14T03:36:45.510Z,23.00
2018-11-14T03:37:18.143Z,22.67
2018-11-14T03:37:50.805Z,28.10
2018-11-14T03:38:23.439Z,29.82
2018-11-14T03:38:56.128Z,26.77
2018-11-14T03:39:28.782Z,30.43
2018-11-14T03:40:01.462Z,31.30
2018-11-14T03:40:34.100Z,24.72
2018-11-14T03:41:06.808Z,27.13
2018-11-14T03:41:39.470Z,27.55
2018-11-14T03:42:12.158Z,30.50
2018-11-14T03:42:44.850Z,22.22
2018-11-14T03:43:17.534Z,33.85
2018-11-14T03:43:50.212Z,31.50
2018-11-14T03:44:22.910Z,30.35
2018-11-14T03:44:55.579Z,34.20
2018-11-14T03:45:28.242Z,29.25
2018-11-14T03:46:00.914Z,23.12
2018-11-14T03:46:33.550Z,30.80
2018-11-14T03:47:06.244Z,27.90
2018-11-14T03:47:39.237Z,29.85
2018-11-14T03:48:11.910Z,29.10
2018-11-14T03:48:44.976Z,31.93
2018-11-14T03:49:17.607Z,29.85
2018-11-14T03:49:50.284Z,29.05
2018-11-14T03:50:22.932Z,36.93
2018-11-14T03:50:55.605Z,32.48
2018-11-14T03:51:28.228Z,31.93
2018-11-14T03:52:00.895Z,27.32
2018-11-14T03:52:33.546Z,30.27
2018-11-14T03:53:06.284Z,33.35
2018-11-14T03:53:39.002Z,33.70
2018-11-14T03:54:11.654Z,26.00
2018-11-14T03:54:44.316Z,29.37
2018-11-14T03:55:17.003Z,30.85
2018-11-14T03:55:49.655Z,35.45
2018-11-14T03:56:22.323Z,34.40
2018-11-14T03:56:55.034Z,31.77
2018-11-14T03:57:27.696Z,30.10
2018-11-14T03:58:00.366Z,28.80
2018-11-14T03:58:33.105Z,32.73
2018-11-14T03:59:05.755Z,28.55
2018-11-14T03:59:38.398Z,29.70
2018-11-14T04:00:13.227Z,26.65
2018-11-14T04:00:45.860Z,23.83
2018-11-14T04:01:18.518Z,28.32
2018-11-14T04:01:51.166Z,27.60
2018-11-14T04:02:23.832Z,30.32
2018-11-14T04:02:56.476Z,30.65
2018-11-14T04:03:29.143Z,33.83
2018-11-14T04:04:01.870Z,26.55
2018-11-14T04:04:34.522Z,25.80
2018-11-14T04:05:07.619Z,29.52
2018-11-14T04:05:40.315Z,32.90
2018-11-14T04:06:12.994Z,26.97
2018-11-14T04:06:45.636Z,29.45
2018-11-14T04:07:18.301Z,28.55
2018-11-14T04:07:50.946Z,29.70
2018-11-14T04:08:23.606Z,28.38
2018-11-14T04:08:56.276Z,25.65
2018-11-14T04:09:29.036Z,24.15
2018-11-14T04:10:01.609Z,29.70
2018-11-14T04:10:34.287Z,25.75
2018-11-14T04:11:07.150Z,29.35
2018-11-14T04:11:39.938Z,24.67
2018-11-14T04:12:12.629Z,29.45
2018-11-14T04:12:45.279Z,33.35
2018-11-14T04:13:17.962Z,27.15
2018-11-14T04:13:50.608Z,26.70
2018-11-14T04:14:23.265Z,24.60
2018-11-14T04:14:55.910Z,26.77
2018-11-14T04:15:28.566Z,25.37
2018-11-14T04:16:01.232Z,27.55
2018-11-14T04:16:34.028Z,26.77
2018-11-14T04:17:06.688Z,23.92
2018-11-14T04:17:39.548Z,25.70
2018-11-14T04:18:12.216Z,25.02
2018-11-14T04:18:44.853Z,26.27
2018-11-14T04:19:17.503Z,24.98
2018-11-14T04:19:50.136Z,21.90
2018-11-14T04:20:22.806Z,25.52
2018-11-14T04:20:55.486Z,24.72
2018-11-14T04:21:28.184Z,31.17
2018-11-14T04:22:00.850Z,25.08
2018-11-14T04:22:33.518Z,24.82
2018-11-14T04:23:06.215Z,26.85
2018-11-14T04:23:46.042Z,23.35
2018-11-14T04:24:18.693Z,25.62
2018-11-14T04:24:51.348Z,24.35
2018-11-14T04:25:24.102Z,24.43
2018-11-14T04:25:56.736Z,22.17
2018-11-14T04:26:29.414Z,23.32
2018-11-14T04:27:02.108Z,23.20
2018-11-14T04:27:34.790Z,24.43
2018-11-14T04:28:07.440Z,23.55
2018-11-14T04:28:40.104Z,23.95
2018-11-14T04:29:12.780Z,22.77
2018-11-14T04:29:45.432Z,26.93
2018-11-14T04:30:20.182Z,28.00
2018-11-14T04:30:52.847Z,24.30
2018-11-14T04:31:25.471Z,20.85
2018-11-14T04:31:58.156Z,29.92
2018-11-14T04:32:30.833Z,21.25
2018-11-14T04:33:03.719Z,22.20
2018-11-14T04:33:36.404Z,26.62
2018-11-14T04:34:09.062Z,27.40
2018-11-14T04:34:41.748Z,28.23
2018-11-14T04:35:15.308Z,24.25
2018-11-14T04:35:48.025Z,29.75
2018-11-14T04:36:20.709Z,26.73
2018-11-14T04:36:53.384Z,25.17
2018-11-14T04:37:26.046Z,23.38
2018-11-14T04:37:58.724Z,23.73
2018-11-14T04:38:31.381Z,26.17
2018-11-14T04:39:07.436Z,26.12
2018-11-14T04:39:40.078Z,23.25
2018-11-14T04:40:14.823Z,21.40
2018-11-14T04:40:47.472Z,22.17
2018-11-14T04:41:20.131Z,22.67
2018-11-14T04:41:52.798Z,24.23
2018-11-14T04:42:25.468Z,23.50
2018-11-14T04:42:58.126Z,24.40
2018-11-14T04:43:30.770Z,21.02
2018-11-14T04:44:04.247Z,21.07
2018-11-14T04:44:36.890Z,25.35
2018-11-14T04:45:11.777Z,28.15
2018-11-14T04:45:44.430Z,25.70
2018-11-14T04:46:17.063Z,24.35
2018-11-14T04:46:49.743Z,26.60
2018-11-14T04:47:22.402Z,25.20
2018-11-14T04:47:55.261Z,21.23
2018-11-14T04:48:27.847Z,22.45
2018-11-14T04:49:00.531Z,27.20
2018-11-14T04:49:33.236Z,22.20
2018-11-14T04:50:08.176Z,21.77
2018-11-14T04:50:40.868Z,24.77
2018-11-14T04:51:13.571Z,27.35
2018-11-14T04:51:46.285Z,25.00
2018-11-14T04:52:18.940Z,24.02
2018-11-14T04:52:52.091Z,20.62
2018-11-14T04:53:24.783Z,28.50
2018-11-14T04:53:57.426Z,26.37
2018-11-14T04:54:30.096Z,23.02
2018-11-14T04:55:02.775Z,22.73
2018-11-14T04:55:35.457Z,21.45
2018-11-14T04:56:08.119Z,23.98
2018-11-14T04:56:40.763Z,23.70
2018-11-14T04:57:13.432Z,23.77
2018-11-14T04:57:46.388Z,24.75
2018-11-14T04:58:19.047Z,22.25
2018-11-14T04:58:51.704Z,26.05
2018-11-14T04:59:24.400Z,21.30
2018-11-14T04:59:57.077Z,25.85
2018-11-14T05:00:29.722Z,21.97
2018-11-14T05:01:02.397Z,23.15
2018-11-14T05:01:35.052Z,23.57
2018-11-14T05:02:08.137Z,21.62
2018-11-14T05:02:42.034Z,22.13
2018-11-14T05:03:14.635Z,24.45
2018-11-14T05:03:47.319Z,27.30
2018-11-14T05:04:20.123Z,29.57
2018-11-14T05:04:52.790Z,26.70
2018-11-14T05:05:25.472Z,23.90
2018-11-14T05:05:58.130Z,27.45
2018-11-14T05:06:30.759Z,21.55
2018-11-14T05:07:03.437Z,24.27
2018-11-14T05:07:36.104Z,23.40
2018-11-14T05:08:08.750Z,21.05
2018-11-14T05:08:41.381Z,24.72
2018-11-14T05:09:14.041Z,23.27
2018-11-14T05:09:46.732Z,22.42
2018-11-14T05:10:21.075Z,21.73
2018-11-14T05:10:53.722Z,23.50
2018-11-14T05:11:26.393Z,23.83
2018-11-14T05:11:59.062Z,22.22
2018-11-14T05:12:31.711Z,22.62
2018-11-14T05:13:04.489Z,23.90
2018-11-14T05:13:37.141Z,22.07
2018-11-14T05:14:10.029Z,22.98
2018-11-14T05:14:42.693Z,25.65
2018-11-14T05:15:16.711Z,26.73
2018-11-14T05:15:49.419Z,23.93
2018-11-14T05:16:22.353Z,23.60
2018-11-14T05:16:55.017Z,21.95
2018-11-14T05:17:27.695Z,26.12
2018-11-14T05:18:00.361Z,25.30
2018-11-14T05:18:33.008Z,21.05
2018-11-14T05:19:05.715Z,22.95
2018-11-14T05:19:38.373Z,26.12
2018-11-14T05:20:12.497Z,26.35
2018-11-14T05:20:45.178Z,29.80
2018-11-14T05:21:17.909Z,20.90
2018-11-14T05:21:50.565Z,23.62
2018-11-14T05:22:23.227Z,23.42
2018-11-14T05:22:55.879Z,23.80
2018-11-14T05:23:28.517Z,25.90
2018-11-14T05:24:01.155Z,22.80
2018-11-14T05:24:33.874Z,26.52
2018-11-14T05:25:06.733Z,23.45
2018-11-14T05:25:39.413Z,22.30
2018-11-14T05:26:12.078Z,21.33
2018-11-14T05:26:44.743Z,24.02
2018-11-14T05:27:17.413Z,21.95
2018-11-14T05:27:50.062Z,24.02
2018-11-14T05:28:22.720Z,23.65
2018-11-14T05:28:55.417Z,21.90
2018-11-14T05:29:28.117Z,21.27
2018-11-14T05:30:00.809Z,21.50
2018-11-14T05:30:33.483Z,20.88
2018-11-14T05:31:06.157Z,22.85
2018-11-14T05:31:38.860Z,24.77
2018-11-14T05:32:11.511Z,23.32
2018-11-14T05:32:45.249Z,21.97
2018-11-14T05:33:17.911Z,24.10
2018-11-14T05:33:50.756Z,22.42
2018-11-14T05:34:23.409Z,21.23
2018-11-14T05:34:56.067Z,22.75
2018-11-14T05:35:28.737Z,20.95
2018-11-14T05:36:01.465Z,22.37
2018-11-14T05:36:34.129Z,23.42
2018-11-14T05:37:06.789Z,22.75
2018-11-14T05:37:39.715Z,21.80
2018-11-14T05:38:12.378Z,22.37
2018-11-14T05:38:45.065Z,23.67
2018-11-14T05:39:17.734Z,20.90
2018-11-14T05:39:50.537Z,26.25
2018-11-14T05:40:23.107Z,24.45
2018-11-14T05:40:55.769Z,25.37
2018-11-14T05:41:28.423Z,23.25
2018-11-14T05:42:01.074Z,21.33
2018-11-14T05:42:33.765Z,22.98
2018-11-14T05:43:06.432Z,20.92
2018-11-14T05:43:39.084Z,25.68
2018-11-14T05:44:11.753Z,21.17
2018-11-14T05:44:44.478Z,21.42
2018-11-14T05:45:18.605Z,22.40
2018-11-14T05:45:51.211Z,24.67
2018-11-14T05:46:23.877Z,21.55
2018-11-14T05:46:56.530Z,20.77
2018-11-14T05:47:29.191Z,23.80
2018-11-14T05:48:01.875Z,24.37
2018-11-14T05:48:34.533Z,21.82
2018-11-14T05:49:07.203Z,20.97
2018-11-14T05:49:39.867Z,24.65
2018-11-14T05:50:14.187Z,20.45
2018-11-14T05:50:46.863Z,20.65
2018-11-14T05:51:19.525Z,20.97
2018-11-14T05:51:52.180Z,20.97
2018-11-14T05:52:24.823Z,25.85
2018-11-14T05:52:57.500Z,21.77
2018-11-14T05:53:30.216Z,23.02
2018-11-14T05:54:02.955Z,22.05
2018-11-14T05:54:35.599Z,23.60
2018-11-14T05:55:09.220Z,20.75
2018-11-14T05:55:41.852Z,20.80
2018-11-14T05:56:14.496Z,22.62
2018-11-14T05:56:47.157Z,21.62
2018-11-14T05:57:19.815Z,20.80
2018-11-14T05:57:52.480Z,21.60
2018-11-14T05:58:25.164Z,22.05
2018-11-14T05:58:57.791Z,25.50
2018-11-14T05:59:30.477Z,21.30
2018-11-14T06:00:04.068Z,23.77
2018-11-14T06:00:36.740Z,24.55
2018-11-14T06:01:09.415Z,20.48
2018-11-14T06:01:42.066Z,22.98
2018-11-14T06:02:14.704Z,23.07
2018-11-14T06:02:47.372Z,21.97
2018-11-14T06:03:20.036Z,21.10
2018-11-14T06:03:52.736Z,20.50
2018-11-14T06:04:25.387Z,25.00
2018-11-14T06:04:58.057Z,21.30
2018-11-14T06:05:30.723Z,23.80
2018-11-14T06:06:03.390Z,23.32
2018-11-14T06:06:36.056Z,27.58
2018-11-14T06:07:08.760Z,21.15
2018-11-14T06:07:41.436Z,20.90
2018-11-14T06:08:14.067Z,24.52
2018-11-14T06:08:46.736Z,23.55
2018-11-14T06:09:19.419Z,23.62
2018-11-14T06:09:52.086Z,23.10
2018-11-14T06:10:24.878Z,20.95
2018-11-14T06:10:57.558Z,24.00
2018-11-14T06:11:30.202Z,22.58
2018-11-14T06:12:02.870Z,20.12
2018-11-14T06:12:35.518Z,23.57
2018-11-14T06:13:08.192Z,25.20
2018-11-14T06:13:40.862Z,24.80
2018-11-14T06:14:13.572Z,21.37
2018-11-14T06:14:46.251Z,22.93
2018-11-14T06:15:19.659Z,25.40
2018-11-14T06:15:52.312Z,20.52
2018-11-14T06:16:25.012Z,23.62
2018-11-14T06:16:57.672Z,22.77
2018-11-14T06:17:30.336Z,20.48
2018-11-14T06:18:03.039Z,23.05
2018-11-14T06:18:35.711Z,21.10
2018-11-14T06:19:08.347Z,23.77
2018-11-14T06:19:41.003Z,21.62
2018-11-14T06:20:15.854Z,27.53
2018-11-14T06:20:48.530Z,22.07
2018-11-14T06:21:21.192Z,20.97
2018-11-14T06:21:53.904Z,23.15
2018-11-14T06:22:26.530Z,22.42
2018-11-14T06:22:59.195Z,25.17
2018-11-14T06:23:31.883Z,21.48
2018-11-14T06:24:04.606Z,22.20
2018-11-14T06:24:37.280Z,23.57
2018-11-14T06:25:22.648Z,21.82
2018-11-14T06:25:55.291Z,28.42
2018-11-14T06:26:27.946Z,23.02
2018-11-14T06:27:00.592Z,23.75
2018-11-14T06:27:33.249Z,23.40
2018-11-14T06:28:07.102Z,24.00
2018-11-14T06:28:39.740Z,24.18
2018-11-14T06:29:12.403Z,26.73
2018-11-14T06:29:45.083Z,23.27
2018-11-14T06:30:17.938Z,24.60
2018-11-14T06:30:50.604Z,23.55
2018-11-14T06:31:23.284Z,22.55
2018-11-14T06:31:55.948Z,26.05
2018-11-14T06:32:28.636Z,24.45
2018-11-14T06:33:02.100Z,28.47
2018-11-14T06:33:34.745Z,21.75
2018-11-14T06:34:07.424Z,23.30
2018-11-14T06:34:40.105Z,25.85
2018-11-14T06:35:12.786Z,27.85
2018-11-14T06:35:45.452Z,21.10
2018-11-14T06:36:18.126Z,20.97
2018-11-14T06:36:50.790Z,20.82
2018-11-14T06:37:23.439Z,23.32
2018-11-14T06:37:56.298Z,22.87
2018-11-14T06:38:28.961Z,26.27
2018-11-14T06:39:01.630Z,27.82
2018-11-14T06:39:34.283Z,24.30
2018-11-14T06:40:08.813Z,30.52
2018-11-14T06:40:41.468Z,26.85
2018-11-14T06:41:14.132Z,27.10
2018-11-14T06:41:46.842Z,25.82
2018-11-14T06:42:19.469Z,21.82
2018-11-14T06:42:52.118Z,21.85
2018-11-14T06:43:24.780Z,21.40
2018-11-14T06:43:57.437Z,21.17
2018-11-14T06:44:30.111Z,23.30
2018-11-14T06:45:02.821Z,22.37
2018-11-14T06:45:35.671Z,25.15
2018-11-14T06:46:08.412Z,24.67
2018-11-14T06:46:41.064Z,25.35
2018-11-14T06:47:13.725Z,22.55
2018-11-14T06:47:47.665Z,22.87
2018-11-14T06:48:20.334Z,24.45
2018-11-14T06:48:52.992Z,27.00
2018-11-14T06:49:25.708Z,25.15
2018-11-14T06:49:58.428Z,27.60
2018-11-14T06:50:31.088Z,24.18
2018-11-14T06:51:03.764Z,25.52
2018-11-14T06:51:36.432Z,26.62
2018-11-14T06:52:09.103Z,24.15
2018-11-14T06:52:42.378Z,23.47
2018-11-14T06:53:15.042Z,24.18
2018-11-14T06:53:47.684Z,21.65
2018-11-14T06:54:20.340Z,22.20
2018-11-14T06:54:52.986Z,27.77
2018-11-14T06:55:25.662Z,24.55
2018-11-14T06:55:58.321Z,24.60
2018-11-14T06:56:30.994Z,27.40
2018-11-14T06:57:03.675Z,24.60
2018-11-14T06:57:36.571Z,27.02
2018-11-14T06:58:09.222Z,25.25
2018-11-14T06:58:41.952Z,26.57
2018-11-14T06:59:14.623Z,24.90
2018-11-14T06:59:47.278Z,24.45
2018-11-14T07:00:30.360Z,22.15
2018-11-14T07:01:03.067Z,25.37
2018-11-14T07:01:35.711Z,26.90
2018-11-14T07:02:08.404Z,21.10
2018-11-14T07:02:41.493Z,25.27
2018-11-14T07:03:14.169Z,26.35
2018-11-14T07:03:46.840Z,25.65
2018-11-14T07:04:19.500Z,21.95